createdAt,value
2023-02-03T00:03:11.955Z,20.40
2023-02-03T00:18:11.725Z,21.80
2023-02-03T00:33:11.554Z,14.50
2023-02-03T00:48:11.411Z,14.70
2023-02-03T01:03:17.296Z,14.60
2023-02-03T01:18:11.139Z,17.50
2023-02-03T01:33:10.980Z,22.60
2023-02-03T01:48:10.841Z,20.80
2023-02-03T02:03:10.712Z,21.40
2023-02-03T02:18:10.544Z,17.70
2023-02-03T02:33:10.416Z,20.10
2023-02-03T02:48:10.259Z,18.70
2023-02-03T03:03:10.095Z,11.40
2023-02-03T03:18:09.971Z,11.50
2023-02-03T03:33:09.813Z,10.00
2023-02-03T03:48:09.687Z,11.10
2023-02-03T04:03:09.590Z,9.50
2023-02-03T04:18:09.416Z,9.50
2023-02-03T04:33:09.248Z,9.50
2023-02-03T04:48:09.097Z,8.20
2023-02-03T05:03:08.963Z,12.30
2023-02-03T05:18:08.810Z,22.60
2023-02-03T05:33:08.646Z,26.10
2023-02-03T05:48:08.512Z,42.70
2023-02-03T06:03:08.362Z,42.90
2023-02-03T06:18:08.205Z,55.20
2023-02-03T06:33:08.049Z,58.70
2023-02-03T06:48:07.884Z,53.10
2023-02-03T07:03:07.734Z,44.70
2023-02-03T07:18:07.567Z,32.20
2023-02-03T07:33:07.877Z,29.40
2023-02-03T07:48:07.251Z,31.10
2023-02-03T08:03:07.086Z,27.40
2023-02-03T08:18:06.947Z,21.50
2023-02-03T08:33:06.780Z,16.80
2023-02-03T08:48:06.632Z,15.20
2023-02-03T09:03:06.467Z,15.80
2023-02-03T09:18:06.362Z,11.50
2023-02-03T09:33:06.156Z,12.50
2023-02-03T09:48:06.038Z,12.30
2023-02-03T10:03:05.874Z,9.00
2023-02-03T10:18:05.693Z,7.10
2023-02-03T10:33:05.567Z,8.30
2023-02-03T10:48:05.378Z,7.70
2023-02-03T11:03:05.266Z,5.80
2023-02-03T11:18:05.078Z,14.90
2023-02-03T11:33:04.920Z,10.50
2023-02-03T11:48:04.763Z,13.60
2023-02-03T12:03:04.649Z,14.30
2023-02-03T12:18:04.463Z,15.80
2023-02-03T12:33:04.304Z,17.00
2023-02-03T12:48:04.164Z,21.60
2023-02-03T13:03:04.017Z,24.90
2023-02-03T13:18:03.857Z,13.40
2023-02-03T13:33:03.694Z,15.40
2023-02-03T13:48:03.537Z,13.40
2023-02-03T14:03:03.382Z,21.00
2023-02-03T14:18:03.304Z,14.70
2023-02-03T14:33:03.088Z,25.20
2023-02-03T14:48:02.956Z,27.00
2023-02-03T15:03:02.799Z,22.30
2023-02-03T15:18:02.620Z,24.20
2023-02-03T15:33:03.466Z,30.10
2023-02-03T15:48:02.494Z,20.20
2023-02-03T16:03:02.234Z,22.00
2023-02-03T16:18:01.989Z,22.10
2023-02-03T16:33:01.840Z,27.20
2023-02-03T16:48:01.665Z,22.10
2023-02-03T17:03:01.563Z,24.00
2023-02-03T17:18:01.372Z,27.00
2023-02-03T17:33:01.841Z,27.10
2023-02-03T17:53:40.232Z,25.10
2023-02-03T18:08:41.444Z,27.90
2023-02-03T18:23:40.956Z,24.40
2023-02-03T18:38:40.757Z,23.90
2023-02-03T18:53:40.881Z,21.00
2023-02-03T19:08:40.581Z,22.20
2023-02-03T19:23:40.379Z,19.60
2023-02-03T19:38:40.528Z,12.90
2023-02-03T19:53:40.026Z,16.70
2023-02-03T20:08:39.869Z,13.80
2023-02-03T20:23:39.672Z,15.20
2023-02-03T20:38:39.492Z,14.70
2023-02-03T20:53:39.394Z,10.20
2023-02-03T21:08:39.194Z,9.00
2023-02-03T21:23:39.019Z,8.20
2023-02-03T21:38:38.865Z,4.10
2023-02-03T21:53:38.716Z,2.70
2023-02-03T22:08:38.534Z,1.40
2023-02-03T22:23:38.366Z,2.80
2023-02-03T22:38:38.206Z,2.70
2023-02-03T22:53:38.055Z,2.20
2023-02-03T23:08:37.896Z,2.40
2023-02-03T23:23:37.737Z,2.60
2023-02-03T23:38:37.573Z,3.30
2023-02-03T23:53:37.463Z,3.00
